»·PEaware :: N15JG KSAN-KTSP

N15JG :: KSAN-KTSP

FLIGHT INFORMATION

Flight Status: Arrived
Operator: Privately registered:
United States
More flights under this callsign
Pilot: Anonymous 11047 (11047)
Aircraft: PIPER PA-28 CHEROKEE ARCHER
(PA28)
More flights by this aircraft type
Origin: KSAN San Diego Intl-Lindbergh
United States
Destination: KTSP Tehachapi Mun
United States
More flights between these airports :: More routes between these airports
Route: +OCN VPLDP POM PMD
File this flight plan on PilotEdge
Remarks:
Altitude:
(Current/Filed)
6,500ft
Speed:
(Current/Filed)
110kts
Departed: 05-Mar-17 10:10 AM
Arrived: 05-Mar-17 11:54 AM
Distance/Time
Traveled:
157nm/1:44
Distance/Time
To Go:
Arrived

Flight Plot

Page will automatically refresh every two minutes.

Flight plan parsing failed; only flown route is shown


Map Options




Map Legend


Flown Route
Filed Route
Departure Airport
Arrival Airport
Navaid (VOR, NDB)
Fix

Horizontal Profiles

Position Reports

Time Latitude Longitude Heading Altitude Ground
Speed
05-Mar-17 09:51 32.732380 -117.176713 197 21ft 0kts
05-Mar-17 09:52 32.732380 -117.176713 197 21ft 0kts
05-Mar-17 09:53 32.732380 -117.176713 197 21ft 0kts
05-Mar-17 09:54 32.732380 -117.176713 197 21ft 0kts
05-Mar-17 09:55 32.732380 -117.176713 197 21ft 0kts
05-Mar-17 09:56 32.732380 -117.176713 197 21ft 0kts
05-Mar-17 09:57 32.732380 -117.176713 197 21ft 0kts
05-Mar-17 09:58 32.732380 -117.176713 197 21ft 0kts
05-Mar-17 09:59 32.732380 -117.176713 197 21ft 0kts
05-Mar-17 10:00 32.732380 -117.176713 197 21ft 0kts
05-Mar-17 10:01 32.732380 -117.176713 197 21ft 0kts
05-Mar-17 10:02 32.732380 -117.176713 197 21ft 0kts
05-Mar-17 10:03 32.732380 -117.176713 197 21ft 0kts
05-Mar-17 10:04 32.732380 -117.176713 197 21ft 0kts
05-Mar-17 10:05 32.732380 -117.176713 197 21ft 0kts
05-Mar-17 10:06 32.732380 -117.176713 197 21ft 0kts
05-Mar-17 10:07 32.731458 -117.176696 148 19ft 11kts
05-Mar-17 10:08 32.730987 -117.175555 142 20ft 0kts
05-Mar-17 10:09 32.730961 -117.175530 140 20ft 0kts
05-Mar-17 10:10 32.730961 -117.175530 140 20ft 0kts
05-Mar-17 10:11 32.731551 -117.181308 286 41ft 80kts
05-Mar-17 10:12 32.740102 -117.205898 319 1021ft 89kts
05-Mar-17 10:13 32.759421 -117.222183 321 2053ft 85kts
05-Mar-17 10:14 32.779594 -117.238700 330 2920ft 90kts
05-Mar-17 10:15 32.806822 -117.246440 347 3699ft 113kts
05-Mar-17 10:16 32.838985 -117.244136 351 4638ft 121kts
05-Mar-17 10:17 32.871758 -117.243804 327 5344ft 112kts
05-Mar-17 10:18 32.894066 -117.260124 291 6080ft 90kts
05-Mar-17 10:19 32.916815 -117.277632 337 6527ft 128kts
05-Mar-17 10:20 32.951391 -117.284430 323 6627ft 122kts
05-Mar-17 10:21 32.980921 -117.300509 309 6690ft 113kts
05-Mar-17 10:22 33.008458 -117.319828 333 6814ft 133kts
05-Mar-17 10:23 33.044270 -117.327053 330 7063ft 124kts
05-Mar-17 10:24 33.071977 -117.337919 316 7401ft 109kts
05-Mar-17 10:25 33.099798 -117.354196 334 7849ft 126kts
05-Mar-17 10:26 33.123700 -117.360557 323 8171ft 120kts
05-Mar-17 10:27 33.151772 -117.378069 308 8451ft 123kts
05-Mar-17 10:28 33.185725 -117.392354 329 8526ft 132kts
05-Mar-17 10:29 33.218241 -117.406053 316 8483ft 123kts
05-Mar-17 10:30 33.247110 -117.424767 303 8475ft 114kts
05-Mar-17 10:31 33.266370 -117.449299 291 8406ft 106kts
05-Mar-17 10:32 33.285816 -117.474641 283 8387ft 98kts
05-Mar-17 10:33 33.305708 -117.499689 294 8371ft 105kts
05-Mar-17 10:34 33.322867 -117.525617 276 8485ft 93kts
05-Mar-17 10:35 33.342366 -117.550572 295 8618ft 105kts
05-Mar-17 10:36 33.363688 -117.575031 292 8678ft 106kts
05-Mar-17 10:37 33.383433 -117.605185 287 8424ft 114kts
05-Mar-17 10:38 33.403292 -117.630038 299 8474ft 105kts
05-Mar-17 10:39 33.423279 -117.650697 293 8496ft 102kts
05-Mar-17 10:40 33.441941 -117.673509 290 8567ft 98kts
05-Mar-17 10:41 33.458270 -117.698512 282 8539ft 96kts
05-Mar-17 10:42 33.473357 -117.724765 295 8270ft 107kts
05-Mar-17 10:43 33.501159 -117.730135 352 7985ft 137kts
05-Mar-17 10:44 33.544830 -117.726614 343 7473ft 135kts
05-Mar-17 10:45 33.581966 -117.730336 333 7060ft 132kts
05-Mar-17 10:46 33.617011 -117.741288 329 6668ft 130kts
05-Mar-17 10:47 33.653639 -117.745992 349 6466ft 138kts
05-Mar-17 10:48 33.692252 -117.740731 12 6559ft 144kts
05-Mar-17 10:49 33.720338 -117.748132 324 6526ft 130kts
05-Mar-17 10:50 33.763488 -117.754658 337 6471ft 135kts
05-Mar-17 10:51 33.795098 -117.756342 347 6482ft 135kts
05-Mar-17 10:52 33.835260 -117.756138 337 6602ft 124kts
05-Mar-17 10:53 33.862715 -117.763088 328 6688ft 120kts
05-Mar-17 10:54 33.899206 -117.767245 341 6550ft 140kts
05-Mar-17 10:55 33.936665 -117.770783 338 6486ft 132kts
05-Mar-17 10:56 33.971840 -117.776162 339 6477ft 123kts
05-Mar-17 10:57 34.006532 -117.779280 340 6607ft 128kts
05-Mar-17 10:58 34.042398 -117.783268 340 6667ft 138kts
05-Mar-17 10:59 34.080273 -117.786296 342 6719ft 134kts
05-Mar-17 11:00 34.109639 -117.796273 316 7056ft 121kts
05-Mar-17 11:01 34.135460 -117.812509 319 7503ft 123kts
05-Mar-17 11:02 34.163658 -117.825716 318 7940ft 118kts
05-Mar-17 11:03 34.186973 -117.837543 317 8279ft 115kts
05-Mar-17 11:04 34.212040 -117.851845 309 8697ft 107kts
05-Mar-17 11:05 34.237993 -117.863537 320 9117ft 114kts
05-Mar-17 11:06 34.264436 -117.873398 311 9549ft 110kts
05-Mar-17 11:07 34.287700 -117.888236 303 9987ft 104kts
05-Mar-17 11:08 34.311855 -117.900970 317 10466ft 108kts
05-Mar-17 11:09 34.335920 -117.911277 328 10419ft 118kts
05-Mar-17 11:10 34.359853 -117.929645 329 10412ft 118kts
05-Mar-17 11:11 34.386075 -117.941657 352 10324ft 122kts
05-Mar-17 11:12 34.412567 -117.944539 353 10414ft 107kts
05-Mar-17 11:13 34.436939 -117.952598 333 10459ft 111kts
05-Mar-17 11:14 34.456555 -117.968281 325 10576ft 85kts
05-Mar-17 11:15 34.475735 -117.976707 320 10362ft 88kts
05-Mar-17 11:16 34.499092 -117.986180 309 10354ft 109kts
05-Mar-17 11:17 34.521272 -118.001936 308 10536ft 109kts
05-Mar-17 11:18 34.548743 -118.012205 325 10557ft 125kts
05-Mar-17 11:19 34.576038 -118.022673 317 10555ft 119kts
05-Mar-17 11:20 34.598995 -118.039073 296 10524ft 104kts
05-Mar-17 11:21 34.618560 -118.058458 290 10485ft 99kts
05-Mar-17 11:22 34.634078 -118.079322 281 10488ft 91kts
05-Mar-17 11:23 34.648040 -118.102196 308 10279ft 120kts
05-Mar-17 11:24 34.677853 -118.108657 332 10341ft 122kts
05-Mar-17 11:25 34.705154 -118.113183 308 10512ft 105kts
05-Mar-17 11:26 34.724347 -118.130235 289 10528ft 96kts
05-Mar-17 11:27 34.745077 -118.146275 311 10169ft 113kts
05-Mar-17 11:28 34.768500 -118.160810 299 9663ft 108kts
05-Mar-17 11:29 34.788840 -118.180018 304 9166ft 112kts
05-Mar-17 11:30 34.807068 -118.196210 298 8834ft 107kts
05-Mar-17 11:31 34.829828 -118.212380 324 8479ft 124kts
05-Mar-17 11:32 34.858536 -118.219389 326 8104ft 126kts
05-Mar-17 11:33 34.885471 -118.230848 325 7710ft 122kts
05-Mar-17 11:34 34.910112 -118.246898 324 7387ft 122kts
05-Mar-17 11:35 34.936195 -118.262886 322 6937ft 125kts
05-Mar-17 11:36 34.959815 -118.280482 308 6595ft 109kts
05-Mar-17 11:37 34.973912 -118.298171 295 6453ft 98kts
05-Mar-17 11:38 34.989364 -118.318323 306 6633ft 98kts
05-Mar-17 11:39 35.009424 -118.334962 317 6974ft 106kts
05-Mar-17 11:40 35.031621 -118.350544 323 7404ft 108kts
05-Mar-17 11:41 35.057570 -118.363444 330 7656ft 121kts
05-Mar-17 11:42 35.085050 -118.374600 328 7580ft 114kts
05-Mar-17 11:43 35.102695 -118.392208 285 7033ft 100kts
05-Mar-17 11:44 35.107725 -118.415060 261 6544ft 90kts
05-Mar-17 11:45 35.107658 -118.437738 261 6078ft 90kts
05-Mar-17 11:46 35.107902 -118.460312 259 5498ft 87kts
05-Mar-17 11:47 35.123889 -118.459911 62 5191ft 120kts
05-Mar-17 11:48 35.125672 -118.433958 129 4855ft 96kts
05-Mar-17 11:49 35.132258 -118.418722 306 4661ft 82kts
05-Mar-17 11:50 35.146177 -118.435887 317 5012ft 95kts
05-Mar-17 11:51 35.137772 -118.460609 213 5247ft 104kts
05-Mar-17 11:52 35.117485 -118.446704 121 5281ft 95kts
05-Mar-17 11:53 35.114085 -118.418456 36 4847ft 91kts
05-Mar-17 11:54 35.131126 -118.432499 313 4137ft 81kts
05-Mar-17 11:55 35.136440 -118.441979 182 3972ft 8kts
05-Mar-17 11:56 35.135104 -118.440753 126 3977ft 13kts

Navigation Log

Ident Type
Flight plan parsing failed, navigation log unavailable